createdAt,value
2023-12-30T00:00:18.761Z,72.93
2023-12-30T00:03:08.640Z,72.96
2023-12-30T00:05:37.247Z,72.88
2023-12-30T00:08:06.115Z,72.94
2023-12-30T00:10:34.769Z,73.09
2023-12-30T00:13:04.500Z,73.13
2023-12-30T00:15:33.469Z,73.23
2023-12-30T00:18:02.025Z,73.17
2023-12-30T00:20:30.745Z,73.06
2023-12-30T00:22:59.339Z,73.13
2023-12-30T00:25:28.370Z,73.05
2023-12-30T00:27:57.523Z,73.04
2023-12-30T00:30:25.934Z,72.80
2023-12-30T00:32:54.784Z,72.65
2023-12-30T00:35:24.117Z,72.64
2023-12-30T00:37:54.615Z,72.86
2023-12-30T00:40:26.895Z,73.18
2023-12-30T00:42:56.350Z,73.45
2023-12-30T00:45:24.782Z,73.57
2023-12-30T00:47:53.657Z,73.55
2023-12-30T00:50:22.164Z,73.38
2023-12-30T00:52:50.698Z,73.51
2023-12-30T00:55:19.458Z,73.63
2023-12-30T00:57:47.923Z,73.76
2023-12-30T01:00:16.680Z,73.51
2023-12-30T01:02:45.060Z,73.51
2023-12-30T01:05:13.570Z,73.21
2023-12-30T01:07:42.254Z,73.12
2023-12-30T01:10:10.922Z,72.90
2023-12-30T01:12:39.418Z,72.74
2023-12-30T01:15:08.790Z,72.75
2023-12-30T01:17:37.317Z,72.82
2023-12-30T01:20:08.372Z,72.93
2023-12-30T01:22:38.252Z,73.22
2023-12-30T01:25:07.717Z,73.37
2023-12-30T01:27:36.461Z,73.49
2023-12-30T01:30:05.634Z,73.46
2023-12-30T01:32:34.253Z,73.65
2023-12-30T01:35:02.544Z,73.46
2023-12-30T01:37:31.417Z,73.55
2023-12-30T01:39:59.930Z,73.87
2023-12-30T01:42:28.680Z,74.16
2023-12-30T01:44:57.402Z,74.18
2023-12-30T01:47:26.272Z,74.03
2023-12-30T01:49:54.984Z,74.10
2023-12-30T01:52:24.110Z,74.10
2023-12-30T01:54:53.148Z,74.22
2023-12-30T01:57:22.422Z,73.97
2023-12-30T01:59:52.524Z,73.70
2023-12-30T02:02:22.896Z,73.82
2023-12-30T02:04:51.697Z,73.82
2023-12-30T02:07:20.271Z,73.78
2023-12-30T02:09:48.851Z,73.76
2023-12-30T02:12:17.702Z,73.73
2023-12-30T02:14:46.452Z,73.69
2023-12-30T02:17:14.878Z,73.62
2023-12-30T02:19:43.515Z,73.62
2023-12-30T02:22:12.452Z,73.46
2023-12-30T02:24:40.966Z,73.44
2023-12-30T02:27:10.936Z,73.61
2023-12-30T02:29:39.386Z,73.50
2023-12-30T02:32:07.883Z,73.63
2023-12-30T02:34:36.829Z,73.71
2023-12-30T02:37:05.687Z,73.88
2023-12-30T02:39:34.193Z,74.17
2023-12-30T02:42:02.783Z,74.21
2023-12-30T02:44:31.416Z,74.03
2023-12-30T02:47:00.181Z,74.08
2023-12-30T02:49:29.359Z,74.14
2023-12-30T02:51:58.956Z,74.14
2023-12-30T02:54:28.868Z,74.04
2023-12-30T02:56:58.192Z,74.10
2023-12-30T02:59:26.639Z,74.17
2023-12-30T03:01:55.413Z,74.17
2023-12-30T03:04:24.417Z,74.09
2023-12-30T03:06:52.972Z,73.91
2023-12-30T03:09:21.420Z,73.98
2023-12-30T03:11:50.290Z,74.05
2023-12-30T03:14:18.869Z,74.37
2023-12-30T03:16:47.355Z,74.52
2023-12-30T03:19:16.249Z,74.66
2023-12-30T03:21:46.481Z,74.81
2023-12-30T03:24:15.473Z,74.73
2023-12-30T03:26:43.906Z,74.72
2023-12-30T03:29:12.807Z,74.68
2023-12-30T03:31:43.015Z,74.57
2023-12-30T03:34:12.610Z,74.65
2023-12-30T03:36:41.074Z,74.47
2023-12-30T03:39:09.616Z,74.31
2023-12-30T03:41:38.038Z,74.22
2023-12-30T03:44:06.518Z,74.41
2023-12-30T03:46:34.923Z,74.60
2023-12-30T03:49:03.538Z,74.67
2023-12-30T03:51:32.431Z,74.74
2023-12-30T03:54:01.386Z,74.77
2023-12-30T03:56:30.079Z,74.76
2023-12-30T03:59:01.030Z,74.61
2023-12-30T04:01:29.794Z,74.46
2023-12-30T04:03:58.533Z,74.59
2023-12-30T04:06:27.110Z,74.53
2023-12-30T04:08:55.755Z,74.61
2023-12-30T04:11:24.606Z,74.65
2023-12-30T04:13:53.077Z,74.67
2023-12-30T04:16:22.073Z,74.72
2023-12-30T04:18:50.708Z,74.53
2023-12-30T04:21:19.210Z,74.28
2023-12-30T04:23:47.564Z,74.00
2023-12-30T04:26:16.287Z,74.01
2023-12-30T04:28:46.704Z,74.01
2023-12-30T04:31:15.487Z,73.91
2023-12-30T04:33:44.113Z,73.78
2023-12-30T04:36:13.328Z,73.95
2023-12-30T04:38:43.567Z,74.26
2023-12-30T04:41:13.998Z,74.38
2023-12-30T04:43:42.435Z,74.62
2023-12-30T04:46:13.420Z,74.54
2023-12-30T04:48:42.045Z,74.62
2023-12-30T04:51:11.466Z,74.71
2023-12-30T04:53:39.889Z,74.94
2023-12-30T04:56:09.870Z,75.06
2023-12-30T04:58:38.391Z,75.19
2023-12-30T05:01:07.115Z,75.26
2023-12-30T05:03:37.057Z,75.26
2023-12-30T05:06:05.601Z,75.39
2023-12-30T05:08:34.495Z,75.36
2023-12-30T05:11:07.831Z,75.36
2023-12-30T05:13:36.289Z,75.35
2023-12-30T05:16:06.041Z,75.26
2023-12-30T05:18:34.886Z,75.25
2023-12-30T05:21:03.946Z,75.25
2023-12-30T05:23:35.633Z,75.42
2023-12-30T05:26:04.856Z,75.52
2023-12-30T05:28:33.731Z,75.66
2023-12-30T05:31:03.521Z,75.94
2023-12-30T05:33:32.353Z,76.00
2023-12-30T05:36:01.229Z,75.88
2023-12-30T05:38:29.617Z,76.00
2023-12-30T05:40:58.197Z,76.07
2023-12-30T05:43:27.349Z,76.12
2023-12-30T05:45:56.347Z,76.04
2023-12-30T05:48:25.694Z,76.00
2023-12-30T05:50:54.478Z,76.05
2023-12-30T05:53:23.380Z,75.88
2023-12-30T05:55:54.147Z,75.97
2023-12-30T05:58:23.268Z,76.06
2023-12-30T06:00:52.113Z,76.17
2023-12-30T06:03:21.357Z,76.44
2023-12-30T06:05:50.107Z,76.67
2023-12-30T06:08:19.189Z,76.92
2023-12-30T06:10:52.738Z,76.94
2023-12-30T06:13:21.923Z,76.77
2023-12-30T06:15:52.368Z,76.77
2023-12-30T06:18:21.042Z,76.73
2023-12-30T06:20:49.405Z,76.95
2023-12-30T06:23:18.014Z,77.08
2023-12-30T06:25:46.514Z,77.03
2023-12-30T06:28:15.895Z,76.93
2023-12-30T06:30:44.938Z,76.71
2023-12-30T06:33:14.279Z,76.79
2023-12-30T06:35:42.829Z,77.03
2023-12-30T06:38:11.317Z,77.14
2023-12-30T06:40:40.345Z,77.27
2023-12-30T06:43:12.439Z,77.47
2023-12-30T06:45:41.054Z,77.52
2023-12-30T06:48:09.873Z,77.62
2023-12-30T06:50:38.366Z,77.86
2023-12-30T06:53:07.133Z,77.83
2023-12-30T06:55:41.940Z,77.86
2023-12-30T06:58:16.081Z,77.88
2023-12-30T07:00:44.615Z,77.84
2023-12-30T07:03:13.156Z,77.49
2023-12-30T07:05:42.211Z,77.30
2023-12-30T07:08:10.727Z,77.09
2023-12-30T07:10:41.731Z,76.77
2023-12-30T07:13:11.134Z,76.27
2023-12-30T07:15:40.157Z,75.71
2023-12-30T07:18:08.879Z,75.37
2023-12-30T07:20:37.500Z,74.88
2023-12-30T07:23:07.178Z,74.67
2023-12-30T07:25:35.635Z,74.48
2023-12-30T07:28:04.860Z,73.93
2023-12-30T07:30:33.380Z,73.32
2023-12-30T07:33:04.491Z,72.89
2023-12-30T07:35:33.180Z,73.11
2023-12-30T07:38:01.849Z,73.23
2023-12-30T07:40:30.588Z,72.96
2023-12-30T07:42:59.757Z,72.90
2023-12-30T07:45:28.472Z,72.70
2023-12-30T07:47:57.192Z,72.68
2023-12-30T07:50:25.857Z,72.53
2023-12-30T07:52:54.642Z,72.15
2023-12-30T07:55:23.466Z,71.81
2023-12-30T07:57:52.149Z,71.48
2023-12-30T08:00:20.917Z,71.23
2023-12-30T08:02:49.536Z,70.88
2023-12-30T08:05:19.618Z,70.65
2023-12-30T08:07:48.176Z,70.47
2023-12-30T08:10:16.956Z,70.46
2023-12-30T08:12:45.584Z,70.18
2023-12-30T08:15:14.327Z,69.79
2023-12-30T08:17:43.002Z,69.56
2023-12-30T08:20:11.940Z,69.55
2023-12-30T08:22:40.894Z,69.23
2023-12-30T08:25:12.865Z,68.99
2023-12-30T08:27:41.506Z,68.41
2023-12-30T08:30:10.418Z,67.91
2023-12-30T08:32:39.046Z,67.62
2023-12-30T08:35:09.181Z,67.48
2023-12-30T08:37:37.947Z,67.36
2023-12-30T08:40:08.089Z,67.33
2023-12-30T08:42:37.382Z,67.41
2023-12-30T08:45:07.280Z,67.68
2023-12-30T08:47:36.306Z,68.08
2023-12-30T08:50:05.530Z,68.43
2023-12-30T08:52:34.107Z,68.27
2023-12-30T08:55:03.053Z,68.03
2023-12-30T08:57:32.100Z,67.67
2023-12-30T09:00:00.696Z,67.32
2023-12-30T09:02:29.634Z,66.70
2023-12-30T09:04:58.813Z,65.73
2023-12-30T09:07:27.531Z,64.29
2023-12-30T09:09:56.477Z,62.86
2023-12-30T09:12:25.539Z,61.14
2023-12-30T09:14:54.376Z,59.68
2023-12-30T09:17:23.055Z,57.57
2023-12-30T09:19:51.794Z,54.82
2023-12-30T09:22:20.965Z,52.67
2023-12-30T09:24:50.463Z,50.49
2023-12-30T09:27:19.420Z,48.97
2023-12-30T09:29:47.994Z,48.11
2023-12-30T09:32:17.126Z,47.59
2023-12-30T09:34:45.687Z,47.01
2023-12-30T09:37:16.402Z,45.93
2023-12-30T09:39:45.545Z,43.52
2023-12-30T09:42:14.330Z,41.46
2023-12-30T09:44:43.117Z,40.68
2023-12-30T09:47:12.705Z,39.69
2023-12-30T09:49:42.349Z,38.20
2023-12-30T09:52:10.995Z,36.86
2023-12-30T09:54:48.309Z,36.81
2023-12-30T09:57:18.392Z,36.50
2023-12-30T09:59:51.005Z,33.67
2023-12-30T10:02:19.659Z,31.50
2023-12-30T10:04:51.146Z,29.63
2023-12-30T10:07:20.640Z,28.51
2023-12-30T10:09:51.885Z,27.15
2023-12-30T10:12:20.526Z,25.62
2023-12-30T10:14:49.217Z,25.07
2023-12-30T10:17:19.641Z,23.86
2023-12-30T10:19:48.802Z,22.95
2023-12-30T10:22:17.886Z,23.02
2023-12-30T10:24:46.497Z,23.69
2023-12-30T10:27:16.263Z,24.09
2023-12-30T10:29:51.156Z,25.48
2023-12-30T10:32:23.752Z,27.04
2023-12-30T10:34:52.566Z,28.69
2023-12-30T10:37:24.690Z,30.06
2023-12-30T10:39:55.479Z,31.86
2023-12-30T10:42:24.326Z,33.13
2023-12-30T10:44:53.191Z,34.30
2023-12-30T10:47:23.810Z,35.89
2023-12-30T10:49:56.003Z,37.40
2023-12-30T10:52:28.318Z,38.47
2023-12-30T10:55:10.385Z,39.38
2023-12-30T10:57:46.187Z,40.59
2023-12-30T11:00:17.696Z,41.62
2023-12-30T11:02:48.441Z,42.55
2023-12-30T11:05:49.269Z,43.04
2023-12-30T11:08:19.973Z,43.65
2023-12-30T11:10:48.699Z,44.09
2023-12-30T11:13:19.856Z,44.20
2023-12-30T11:15:48.462Z,44.38
2023-12-30T11:18:53.103Z,44.43
2023-12-30T11:21:45.125Z,44.74
2023-12-30T11:24:19.994Z,45.35
2023-12-30T11:26:49.371Z,46.01
2023-12-30T11:29:19.834Z,46.17
2023-12-30T11:31:50.001Z,46.49
2023-12-30T11:34:19.825Z,46.93
2023-12-30T11:36:49.110Z,47.21
2023-12-30T11:39:41.865Z,47.63
2023-12-30T11:42:11.314Z,48.09
2023-12-30T11:44:40.877Z,47.99
2023-12-30T11:47:09.547Z,48.43
2023-12-30T11:49:38.710Z,48.88
2023-12-30T11:52:09.540Z,49.11
2023-12-30T11:54:40.122Z,49.10
2023-12-30T11:57:10.854Z,48.99
2023-12-30T11:59:39.650Z,48.99
2023-12-30T12:02:15.900Z,48.98
2023-12-30T12:04:44.911Z,49.19
2023-12-30T12:07:14.533Z,49.19
2023-12-30T12:09:44.683Z,49.28
2023-12-30T12:12:13.819Z,49.50
2023-12-30T12:14:54.274Z,49.64
2023-12-30T12:17:24.529Z,49.53
2023-12-30T12:19:53.678Z,49.59
2023-12-30T12:22:22.934Z,49.87
2023-12-30T12:24:53.034Z,50.07
2023-12-30T12:27:23.555Z,50.65
2023-12-30T12:29:54.505Z,50.91
2023-12-30T12:32:26.039Z,51.30
2023-12-30T12:34:55.820Z,51.51
2023-12-30T12:37:26.263Z,51.93
2023-12-30T12:39:56.767Z,51.87
2023-12-30T12:42:30.892Z,51.96
2023-12-30T12:45:04.881Z,52.24
2023-12-30T12:47:35.171Z,51.97
2023-12-30T12:50:05.930Z,52.09
2023-12-30T12:52:35.118Z,52.62
2023-12-30T12:55:04.865Z,52.75
2023-12-30T12:57:34.925Z,52.72
2023-12-30T13:00:10.777Z,52.58
2023-12-30T13:02:42.374Z,52.81
2023-12-30T13:05:11.546Z,53.06
2023-12-30T13:07:43.590Z,53.02
2023-12-30T13:10:34.258Z,53.06
2023-12-30T13:13:08.388Z,53.26
2023-12-30T13:15:40.333Z,53.55
2023-12-30T13:18:14.929Z,53.66
2023-12-30T13:20:46.885Z,53.66
2023-12-30T13:23:17.611Z,53.61
2023-12-30T13:25:50.193Z,53.33
2023-12-30T13:28:21.194Z,53.34
2023-12-30T13:30:50.335Z,53.39
2023-12-30T13:33:22.949Z,53.15
2023-12-30T13:35:53.724Z,53.30
2023-12-30T13:38:25.551Z,53.26
2023-12-30T13:40:55.629Z,53.36
2023-12-30T13:43:28.621Z,53.25
2023-12-30T13:46:18.706Z,53.18
2023-12-30T13:49:27.411Z,53.31
2023-12-30T13:52:01.943Z,53.31
2023-12-30T13:54:31.866Z,53.15
2023-12-30T13:57:14.237Z,52.94
2023-12-30T13:59:47.065Z,53.09
2023-12-30T14:02:20.085Z,52.81
2023-12-30T14:04:58.832Z,52.40
2023-12-30T14:07:31.900Z,52.48
2023-12-30T14:10:05.909Z,52.29
2023-12-30T14:12:36.660Z,52.50
2023-12-30T14:15:11.746Z,52.49
2023-12-30T14:17:44.135Z,52.79
2023-12-30T14:20:15.810Z,53.01
2023-12-30T14:22:45.657Z,52.87
2023-12-30T14:25:15.341Z,52.96
2023-12-30T14:27:45.241Z,52.97
2023-12-30T14:30:15.361Z,53.26
2023-12-30T14:32:46.040Z,53.14
2023-12-30T14:35:17.223Z,51.98
2023-12-30T14:37:46.123Z,51.25
2023-12-30T14:40:15.445Z,49.39
2023-12-30T14:42:46.235Z,47.70
2023-12-30T14:45:20.065Z,46.47
2023-12-30T14:47:50.982Z,44.93
2023-12-30T14:50:21.449Z,43.72
2023-12-30T14:52:52.982Z,42.81
2023-12-30T14:55:23.769Z,41.52
2023-12-30T14:57:55.583Z,40.52
2023-12-30T15:00:25.771Z,40.24
2023-12-30T15:02:56.344Z,39.82
2023-12-30T15:05:25.187Z,39.75
2023-12-30T15:07:56.749Z,39.37
2023-12-30T15:10:26.877Z,39.25
2023-12-30T15:12:58.390Z,39.27
2023-12-30T15:15:27.230Z,39.34
2023-12-30T15:17:56.365Z,39.78
2023-12-30T15:20:27.532Z,41.02
2023-12-30T15:22:58.445Z,42.50
2023-12-30T15:25:28.162Z,43.42
2023-12-30T15:27:57.018Z,44.39
2023-12-30T15:30:25.722Z,45.24
2023-12-30T15:32:56.599Z,46.21
2023-12-30T15:35:26.398Z,47.47
2023-12-30T15:37:55.671Z,48.25
2023-12-30T15:40:25.121Z,49.02
2023-12-30T15:42:54.049Z,49.80
2023-12-30T15:45:23.063Z,50.67
2023-12-30T15:47:53.232Z,51.19
2023-12-30T15:50:22.118Z,51.66
2023-12-30T15:52:51.041Z,52.28
2023-12-30T15:55:20.915Z,53.24
2023-12-30T15:57:53.351Z,53.92
2023-12-30T16:00:23.104Z,54.41
2023-12-30T16:02:53.443Z,55.23
2023-12-30T16:05:25.710Z,55.94
2023-12-30T16:07:55.139Z,56.50
2023-12-30T16:10:27.833Z,57.31
2023-12-30T16:12:58.451Z,57.69
2023-12-30T16:15:29.729Z,58.21
2023-12-30T16:17:58.596Z,58.74
2023-12-30T16:20:28.031Z,59.21
2023-12-30T16:22:57.653Z,59.47
2023-12-30T16:25:27.586Z,59.89
2023-12-30T16:27:56.789Z,60.39
2023-12-30T16:30:25.643Z,60.81
2023-12-30T16:32:54.879Z,61.21
2023-12-30T16:35:24.954Z,61.61
2023-12-30T16:37:53.916Z,62.00
2023-12-30T16:40:23.213Z,62.23
2023-12-30T16:42:54.625Z,62.51
2023-12-30T16:45:23.540Z,62.93
2023-12-30T16:47:52.715Z,63.50
2023-12-30T16:50:21.518Z,63.77
2023-12-30T16:52:50.775Z,64.14
2023-12-30T16:55:19.982Z,64.54
2023-12-30T16:57:49.293Z,64.71
2023-12-30T17:00:18.623Z,64.96
2023-12-30T17:02:48.395Z,65.09
2023-12-30T17:05:18.397Z,65.23
2023-12-30T17:07:48.692Z,65.54
2023-12-30T17:10:18.783Z,65.87
2023-12-30T17:12:48.177Z,66.17
2023-12-30T17:15:17.933Z,66.36
2023-12-30T17:17:46.870Z,66.87
2023-12-30T17:20:17.989Z,67.17
2023-12-30T17:22:48.210Z,67.36
2023-12-30T17:25:17.433Z,67.54
2023-12-30T17:27:47.086Z,67.69
2023-12-30T17:30:16.516Z,67.91
2023-12-30T17:32:45.786Z,67.93
2023-12-30T17:35:16.139Z,68.04
2023-12-30T17:37:45.580Z,68.22
2023-12-30T17:40:19.467Z,68.37
2023-12-30T17:42:49.417Z,68.41
2023-12-30T17:45:19.154Z,68.42
2023-12-30T17:47:51.155Z,68.57
2023-12-30T17:50:21.582Z,68.79
2023-12-30T17:52:51.383Z,68.74
2023-12-30T17:55:20.312Z,68.96
2023-12-30T17:57:49.120Z,69.37
2023-12-30T18:00:18.387Z,69.42
2023-12-30T18:02:47.712Z,69.75
2023-12-30T18:05:16.748Z,70.01
2023-12-30T18:07:46.323Z,70.21
2023-12-30T18:10:15.774Z,70.44
2023-12-30T18:12:50.694Z,70.50
2023-12-30T18:15:20.579Z,70.40
2023-12-30T18:17:49.797Z,70.07
2023-12-30T18:20:19.488Z,69.92
2023-12-30T18:22:48.888Z,69.67
2023-12-30T18:25:18.016Z,69.61
2023-12-30T18:27:47.781Z,69.46
2023-12-30T18:30:17.233Z,69.26
2023-12-30T18:32:47.002Z,69.44
2023-12-30T18:35:15.945Z,69.63
2023-12-30T18:37:45.414Z,70.18
2023-12-30T18:40:18.546Z,70.49
2023-12-30T18:42:50.473Z,70.66
2023-12-30T18:45:22.442Z,70.71
2023-12-30T18:48:06.762Z,70.60
2023-12-30T18:50:35.681Z,70.58
2023-12-30T18:53:14.120Z,70.84
2023-12-30T18:55:55.386Z,70.56
2023-12-30T18:58:23.934Z,70.58
2023-12-30T19:00:57.601Z,70.38
2023-12-30T19:03:26.423Z,70.08
2023-12-30T19:05:59.434Z,69.73
2023-12-30T19:08:29.383Z,69.87
2023-12-30T19:10:58.515Z,70.09
2023-12-30T19:13:27.808Z,70.41
2023-12-30T19:15:56.900Z,70.86
2023-12-30T19:18:26.030Z,70.94
2023-12-30T19:20:57.412Z,71.15
2023-12-30T19:23:27.014Z,71.16
2023-12-30T19:25:56.106Z,71.12
2023-12-30T19:28:29.205Z,70.76
2023-12-30T19:31:00.172Z,70.61
2023-12-30T19:33:32.147Z,70.50
2023-12-30T19:36:04.435Z,70.19
2023-12-30T19:38:34.220Z,69.77
2023-12-30T19:41:03.425Z,69.41
2023-12-30T19:43:36.260Z,69.08
2023-12-30T19:46:09.254Z,68.81
2023-12-30T19:48:38.162Z,68.89
2023-12-30T19:51:07.959Z,68.90
2023-12-30T19:53:36.980Z,69.05
2023-12-30T19:56:09.570Z,68.95
2023-12-30T19:58:38.354Z,69.15
2023-12-30T20:01:07.430Z,69.29
2023-12-30T20:03:36.949Z,68.99
2023-12-30T20:06:08.128Z,68.57
2023-12-30T20:08:41.302Z,68.83
2023-12-30T20:11:14.791Z,68.64
2023-12-30T20:13:48.616Z,68.57
2023-12-30T20:16:18.283Z,68.49
2023-12-30T20:18:50.119Z,68.54
2023-12-30T20:21:20.132Z,68.73
2023-12-30T20:23:49.360Z,69.18
2023-12-30T20:26:18.254Z,69.57
2023-12-30T20:28:49.310Z,69.87
2023-12-30T20:31:20.599Z,69.79
2023-12-30T20:33:49.772Z,69.82
2023-12-30T20:36:23.908Z,70.06
2023-12-30T20:38:53.764Z,70.24
2023-12-30T20:41:22.476Z,70.32
2023-12-30T20:43:51.556Z,70.24
2023-12-30T20:46:21.138Z,70.22
2023-12-30T20:48:50.399Z,70.26
2023-12-30T20:51:19.977Z,70.19
2023-12-30T20:53:52.554Z,69.90
2023-12-30T20:56:21.469Z,69.91
2023-12-30T20:58:51.258Z,69.91
2023-12-30T21:01:21.046Z,69.95
2023-12-30T21:03:51.279Z,70.15
2023-12-30T21:06:20.819Z,70.35
2023-12-30T21:08:51.096Z,70.10
2023-12-30T21:11:21.214Z,70.12
2023-12-30T21:13:50.307Z,70.11
2023-12-30T21:16:22.119Z,70.45
2023-12-30T21:18:51.579Z,70.53
2023-12-30T21:21:20.871Z,70.56
2023-12-30T21:23:50.539Z,70.70
2023-12-30T21:26:22.808Z,70.93
2023-12-30T21:28:52.106Z,71.20
2023-12-30T21:31:20.965Z,71.70
2023-12-30T21:33:50.759Z,72.24
2023-12-30T21:36:20.700Z,72.38
2023-12-30T21:38:50.046Z,72.20
2023-12-30T21:41:25.230Z,71.94
2023-12-30T21:43:53.873Z,71.56
2023-12-30T21:46:24.903Z,71.60
2023-12-30T21:49:00.777Z,71.58
2023-12-30T21:51:29.852Z,71.78
2023-12-30T21:53:59.174Z,71.73
2023-12-30T21:56:28.179Z,71.91
2023-12-30T21:58:56.726Z,72.05
2023-12-30T22:01:25.986Z,72.31
2023-12-30T22:03:54.694Z,72.66
2023-12-30T22:06:23.391Z,72.82
2023-12-30T22:08:52.488Z,73.16
2023-12-30T22:11:21.662Z,73.30
2023-12-30T22:13:50.686Z,73.49
2023-12-30T22:16:20.106Z,73.82
2023-12-30T22:18:49.352Z,74.28
2023-12-30T22:21:19.520Z,74.43
2023-12-30T22:23:48.977Z,74.43
2023-12-30T22:26:19.216Z,74.58
2023-12-30T22:28:48.126Z,74.60
2023-12-30T22:31:17.461Z,74.57
2023-12-30T22:33:46.400Z,74.56
2023-12-30T22:36:15.528Z,74.53
2023-12-30T22:38:44.276Z,74.66
2023-12-30T22:41:13.353Z,74.66
2023-12-30T22:43:42.469Z,74.73
2023-12-30T22:46:11.632Z,74.47
2023-12-30T22:48:40.299Z,73.88
2023-12-30T22:51:09.393Z,74.09
2023-12-30T22:53:41.365Z,73.81
2023-12-30T22:56:11.393Z,73.49
2023-12-30T22:58:40.599Z,73.17
2023-12-30T23:01:09.527Z,73.30
2023-12-30T23:03:40.817Z,73.01
2023-12-30T23:06:10.428Z,72.79
2023-12-30T23:08:39.577Z,72.83
2023-12-30T23:11:09.045Z,72.97
2023-12-30T23:13:38.808Z,72.89
2023-12-30T23:16:09.027Z,73.13
2023-12-30T23:18:38.500Z,73.06
2023-12-30T23:21:08.358Z,73.14
2023-12-30T23:23:38.202Z,73.36
2023-12-30T23:26:09.560Z,73.61
2023-12-30T23:28:38.823Z,73.78
2023-12-30T23:31:07.834Z,74.11
2023-12-30T23:33:37.008Z,74.04
2023-12-30T23:36:06.202Z,74.38
2023-12-30T23:38:34.963Z,74.70
2023-12-30T23:41:04.062Z,75.02
2023-12-30T23:43:33.080Z,74.93
2023-12-30T23:46:02.084Z,74.86
2023-12-30T23:48:30.609Z,74.95
2023-12-30T23:50:59.101Z,75.01
2023-12-30T23:53:27.979Z,75.03
2023-12-30T23:55:56.858Z,74.95
2023-12-30T23:58:25.442Z,75.03
